sensor_id;sensor_type;location;lat;lon;timestamp;pressure;altitude;pressure_sealevel;temperature;humidity
250;BME280;109;19.806;-70.704;2023-05-28T00:01:36;101429.47;;;28.44;62.66
250;BME280;109;19.806;-70.704;2023-05-28T00:04:03;101426.94;;;28.41;62.57
250;BME280;109;19.806;-70.704;2023-05-28T00:06:29;101422.47;;;28.26;62.29
250;BME280;109;19.806;-70.704;2023-05-28T00:08:56;101422.56;;;28.24;62.55
250;BME280;109;19.806;-70.704;2023-05-28T00:11:22;101416.81;;;28.31;62.48
250;BME280;109;19.806;-70.704;2023-05-28T00:13:49;101419.44;;;28.32;62.66
250;BME280;109;19.806;-70.704;2023-05-28T00:16:16;101419.00;;;28.24;62.74
250;BME280;109;19.806;-70.704;2023-05-28T00:18:42;101421.91;;;28.35;62.53
250;BME280;109;19.806;-70.704;2023-05-28T00:21:09;101428.88;;;28.39;62.56
250;BME280;109;19.806;-70.704;2023-05-28T00:23:36;101422.28;;;28.29;62.19
250;BME280;109;19.806;-70.704;2023-05-28T00:26:09;101422.47;;;28.26;62.36
250;BME280;109;19.806;-70.704;2023-05-28T00:28:37;101427.16;;;28.22;62.75
250;BME280;109;19.806;-70.704;2023-05-28T00:31:10;101417.94;;;28.26;62.99
250;BME280;109;19.806;-70.704;2023-05-28T00:33:37;101423.00;;;28.33;62.65
250;BME280;109;19.806;-70.704;2023-05-28T00:36:18;101434.28;;;28.23;62.52
250;BME280;109;19.806;-70.704;2023-05-28T00:38:58;101442.44;;;28.22;62.83
250;BME280;109;19.806;-70.704;2023-05-28T00:41:37;101445.41;;;28.17;62.61
250;BME280;109;19.806;-70.704;2023-05-28T00:44:06;101441.75;;;28.18;62.68
250;BME280;109;19.806;-70.704;2023-05-28T00:46:44;101442.19;;;28.26;63.05
250;BME280;109;19.806;-70.704;2023-05-28T00:49:18;101434.88;;;28.29;62.77
250;BME280;109;19.806;-70.704;2023-05-28T00:51:44;101434.28;;;28.23;62.78
250;BME280;109;19.806;-70.704;2023-05-28T00:54:18;101433.41;;;28.23;62.99
250;BME280;109;19.806;-70.704;2023-05-28T00:56:44;101426.41;;;28.20;62.85
250;BME280;109;19.806;-70.704;2023-05-28T00:59:20;101422.84;;;28.20;62.84
250;BME280;109;19.806;-70.704;2023-05-28T01:01:48;101435.19;;;28.08;63.15
250;BME280;109;19.806;-70.704;2023-05-28T01:04:21;101430.84;;;28.06;63.28
250;BME280;109;19.806;-70.704;2023-05-28T01:06:48;101431.72;;;28.06;63.38
250;BME280;109;19.806;-70.704;2023-05-28T01:09:21;101424.66;;;28.04;63.49
250;BME280;109;19.806;-70.704;2023-05-28T01:11:48;101424.75;;;28.02;62.90
250;BME280;109;19.806;-70.704;2023-05-28T01:14:24;101426.56;;;28.02;63.05
250;BME280;109;19.806;-70.704;2023-05-28T01:16:50;101423.81;;;28.03;62.92
250;BME280;109;19.806;-70.704;2023-05-28T01:19:25;101427.38;;;28.04;62.92
250;BME280;109;19.806;-70.704;2023-05-28T01:21:59;101434.31;;;28.08;63.40
250;BME280;109;19.806;-70.704;2023-05-28T01:24:35;101431.78;;;28.05;63.00
250;BME280;109;19.806;-70.704;2023-05-28T01:27:04;101427.44;;;28.02;63.34
250;BME280;109;19.806;-70.704;2023-05-28T01:29:38;101420.84;;;28.08;63.19
250;BME280;109;19.806;-70.704;2023-05-28T01:32:13;101423.88;;;28.02;63.27
250;BME280;109;19.806;-70.704;2023-05-28T01:34:46;101428.47;;;28.00;63.59
250;BME280;109;19.806;-70.704;2023-05-28T01:37:14;101424.84;;;28.01;63.67
250;BME280;109;19.806;-70.704;2023-05-28T01:39:50;101428.41;;;28.01;63.63
250;BME280;109;19.806;-70.704;2023-05-28T01:42:32;101417.03;;;27.96;63.66
250;BME280;109;19.806;-70.704;2023-05-28T01:45:01;101425.09;;;27.96;63.20
250;BME280;109;19.806;-70.704;2023-05-28T01:47:38;101425.16;;;27.95;63.68
250;BME280;109;19.806;-70.704;2023-05-28T01:50:12;101422.22;;;27.99;63.78
250;BME280;109;19.806;-70.704;2023-05-28T01:52:38;101421.91;;;28.05;63.57
250;BME280;109;19.806;-70.704;2023-05-28T01:55:12;101418.69;;;27.99;63.73
250;BME280;109;19.806;-70.704;2023-05-28T01:57:39;101416.72;;;27.85;63.76
250;BME280;109;19.806;-70.704;2023-05-28T02:00:13;101419.25;;;27.88;63.76
250;BME280;109;19.806;-70.704;2023-05-28T02:02:43;101426.91;;;27.80;63.63
250;BME280;109;19.806;-70.704;2023-05-28T02:05:17;101425.75;;;27.84;64.01
250;BME280;109;19.806;-70.704;2023-05-28T02:07:44;101425.75;;;27.84;63.74
250;BME280;109;19.806;-70.704;2023-05-28T02:10:18;101415.53;;;27.75;63.98
250;BME280;109;19.806;-70.704;2023-05-28T02:12:45;101417.09;;;27.79;64.48
250;BME280;109;19.806;-70.704;2023-05-28T02:15:20;101420.75;;;27.78;64.09
250;BME280;109;19.806;-70.704;2023-05-28T02:17:49;101432.69;;;27.72;64.09
250;BME280;109;19.806;-70.704;2023-05-28T02:20:23;101426.19;;;27.76;63.99
250;BME280;109;19.806;-70.704;2023-05-28T02:22:50;101433.41;;;27.76;64.35
250;BME280;109;19.806;-70.704;2023-05-28T02:25:30;101434.44;;;27.73;64.55
250;BME280;109;19.806;-70.704;2023-05-28T02:28:03;101427.84;;;27.79;64.32
250;BME280;109;19.806;-70.704;2023-05-28T02:30:30;101419.94;;;27.76;64.24
250;BME280;109;19.806;-70.704;2023-05-28T02:33:03;101417.25;;;27.76;64.55
250;BME280;109;19.806;-70.704;2023-05-28T02:35:31;101432.91;;;27.69;64.71
250;BME280;109;19.806;-70.704;2023-05-28T02:38:04;101422.53;;;27.62;64.59
250;BME280;109;19.806;-70.704;2023-05-28T02:40:44;101426.25;;;27.59;64.93
250;BME280;109;19.806;-70.704;2023-05-28T02:43:12;101427.34;;;27.57;64.46
250;BME280;109;19.806;-70.704;2023-05-28T02:45:45;101432.50;;;27.60;64.85
250;BME280;109;19.806;-70.704;2023-05-28T02:48:12;101424.88;;;27.52;64.58
250;BME280;109;19.806;-70.704;2023-05-28T02:50:45;101432.88;;;27.53;65.08
250;BME280;109;19.806;-70.704;2023-05-28T02:53:32;101420.00;;;27.59;64.80
250;BME280;109;19.806;-70.704;2023-05-28T02:56:05;101417.78;;;27.67;64.88
250;BME280;109;19.806;-70.704;2023-05-28T02:58:36;101414.31;;;27.65;64.62
250;BME280;109;19.806;-70.704;2023-05-28T03:01:09;101419.84;;;27.62;64.98
250;BME280;109;19.806;-70.704;2023-05-28T03:03:36;101418.28;;;27.58;64.53
250;BME280;109;19.806;-70.704;2023-05-28T03:06:09;101425.47;;;27.57;64.89
250;BME280;109;19.806;-70.704;2023-05-28T03:08:48;101421.25;;;27.53;64.88
250;BME280;109;19.806;-70.704;2023-05-28T03:11:22;101416.66;;;27.55;65.09
250;BME280;109;19.806;-70.704;2023-05-28T03:13:48;101404.81;;;27.42;65.21
250;BME280;109;19.806;-70.704;2023-05-28T03:16:21;101403.94;;;27.41;65.04
250;BME280;109;19.806;-70.704;2023-05-28T03:18:51;101410.34;;;27.39;65.32
250;BME280;109;19.806;-70.704;2023-05-28T03:21:32;101407.03;;;27.34;65.37
250;BME280;109;19.806;-70.704;2023-05-28T03:24:05;101411.25;;;27.22;65.78
250;BME280;109;19.806;-70.704;2023-05-28T03:26:41;101414.06;;;27.36;65.84
250;BME280;109;19.806;-70.704;2023-05-28T03:29:20;101411.91;;;27.43;65.70
250;BME280;109;19.806;-70.704;2023-05-28T03:32:05;101418.16;;;27.43;65.46
250;BME280;109;19.806;-70.704;2023-05-28T03:34:40;101421.00;;;27.40;65.61
250;BME280;109;19.806;-70.704;2023-05-28T03:37:06;101423.38;;;27.46;65.52
250;BME280;109;19.806;-70.704;2023-05-28T03:39:41;101424.41;;;27.44;65.35
250;BME280;109;19.806;-70.704;2023-05-28T03:42:22;101427.97;;;27.44;65.16
250;BME280;109;19.806;-70.704;2023-05-28T03:44:48;101414.78;;;27.40;65.07
250;BME280;109;19.806;-70.704;2023-05-28T03:47:21;101414.53;;;27.44;64.99
250;BME280;109;19.806;-70.704;2023-05-28T03:49:48;101414.69;;;27.41;65.18
250;BME280;109;19.806;-70.704;2023-05-28T03:52:21;101405.22;;;27.34;65.30
250;BME280;109;19.806;-70.704;2023-05-28T03:54:51;101410.59;;;27.34;65.22
250;BME280;109;19.806;-70.704;2023-05-28T03:57:25;101410.94;;;27.28;65.37
250;BME280;109;19.806;-70.704;2023-05-28T03:59:53;101410.66;;;27.33;65.55
250;BME280;109;19.806;-70.704;2023-05-28T04:02:31;101413.97;;;27.38;65.13
250;BME280;109;19.806;-70.704;2023-05-28T04:04:57;101415.47;;;27.43;65.39
250;BME280;109;19.806;-70.704;2023-05-28T04:07:30;101417.22;;;27.44;65.27
250;BME280;109;19.806;-70.704;2023-05-28T04:09:57;101423.63;;;27.42;65.15
250;BME280;109;19.806;-70.704;2023-05-28T04:12:38;101419.19;;;27.41;65.19
250;BME280;109;19.806;-70.704;2023-05-28T04:15:11;101421.88;;;27.41;65.30
250;BME280;109;19.806;-70.704;2023-05-28T04:17:38;101428.38;;;27.37;65.46
250;BME280;109;19.806;-70.704;2023-05-28T04:20:11;101416.50;;;27.41;65.25
250;BME280;109;19.806;-70.704;2023-05-28T04:22:38;101417.13;;;27.46;65.38
250;BME280;109;19.806;-70.704;2023-05-28T04:25:11;101423.22;;;27.49;65.28
250;BME280;109;19.806;-70.704;2023-05-28T04:27:38;101421.31;;;27.51;65.21
250;BME280;109;19.806;-70.704;2023-05-28T04:30:14;101412.91;;;27.58;65.31
250;BME280;109;19.806;-70.704;2023-05-28T04:32:40;101413.97;;;27.55;64.78
250;BME280;109;19.806;-70.704;2023-05-28T04:35:13;101408.44;;;27.41;64.91
250;BME280;109;19.806;-70.704;2023-05-28T04:37:40;101412.94;;;27.40;65.08
250;BME280;109;19.806;-70.704;2023-05-28T04:40:13;101410.25;;;27.40;65.04
250;BME280;109;19.806;-70.704;2023-05-28T04:42:54;101406.16;;;27.33;65.05
250;BME280;109;19.806;-70.704;2023-05-28T04:45:23;101389.00;;;27.36;64.75
250;BME280;109;19.806;-70.704;2023-05-28T04:47:57;101386.31;;;27.36;64.16
250;BME280;109;19.806;-70.704;2023-05-28T04:50:24;101391.59;;;27.37;64.01
250;BME280;109;19.806;-70.704;2023-05-28T04:52:57;101393.19;;;27.41;64.29
250;BME280;109;19.806;-70.704;2023-05-28T04:55:24;101390.81;;;27.35;63.85
250;BME280;109;19.806;-70.704;2023-05-28T04:57:57;101391.78;;;27.34;63.48
250;BME280;109;19.806;-70.704;2023-05-28T05:00:24;101391.84;;;27.33;63.12
250;BME280;109;19.806;-70.704;2023-05-28T05:03:01;101383.19;;;27.28;63.01
250;BME280;109;19.806;-70.704;2023-05-28T05:05:28;101390.97;;;27.32;62.91
250;BME280;109;19.806;-70.704;2023-05-28T05:08:01;101385.97;;;27.26;62.87
250;BME280;109;19.806;-70.704;2023-05-28T05:10:36;101383.66;;;27.18;62.78
250;BME280;109;19.806;-70.704;2023-05-28T05:13:08;101373.78;;;27.19;62.34
250;BME280;109;19.806;-70.704;2023-05-28T05:15:35;101373.78;;;27.19;62.23
250;BME280;109;19.806;-70.704;2023-05-28T05:18:08;101370.00;;;27.23;62.48
250;BME280;109;19.806;-70.704;2023-05-28T05:20:35;101369.91;;;27.25;62.44
250;BME280;109;19.806;-70.704;2023-05-28T05:23:08;101371.09;;;27.19;61.63
250;BME280;109;19.806;-70.704;2023-05-28T05:25:35;101379.34;;;27.16;62.23
250;BME280;109;19.806;-70.704;2023-05-28T05:28:08;101377.94;;;27.09;62.39
250;BME280;109;19.806;-70.704;2023-05-28T05:30:36;101369.88;;;27.09;61.60
250;BME280;109;19.806;-70.704;2023-05-28T05:33:10;101356.72;;;27.04;61.59
250;BME280;109;19.806;-70.704;2023-05-28T05:35:59;101360.59;;;26.99;61.35
250;BME280;109;19.806;-70.704;2023-05-28T05:38:52;101352.88;;;27.08;61.72
250;BME280;109;19.806;-70.704;2023-05-28T05:41:50;101352.66;;;27.13;61.80
250;BME280;109;19.806;-70.704;2023-05-28T05:44:28;101343.56;;;27.15;61.40
250;BME280;109;19.806;-70.704;2023-05-28T05:47:01;101352.13;;;27.22;62.31
250;BME280;109;19.806;-70.704;2023-05-28T05:49:28;101343.38;;;27.18;62.01
250;BME280;109;19.806;-70.704;2023-05-28T05:52:01;101342.59;;;27.16;62.47
250;BME280;109;19.806;-70.704;2023-05-28T05:54:30;101350.66;;;27.16;62.14
250;BME280;109;19.806;-70.704;2023-05-28T05:57:19;101344.16;;;27.20;61.80
250;BME280;109;19.806;-70.704;2023-05-28T05:59:54;101349.97;;;27.13;62.40
250;BME280;109;19.806;-70.704;2023-05-28T06:02:39;101339.38;;;27.10;62.20
250;BME280;109;19.806;-70.704;2023-05-28T06:05:31;101339.13;;;27.14;61.95
250;BME280;109;19.806;-70.704;2023-05-28T06:08:43;101340.16;;;27.12;62.02
250;BME280;109;19.806;-70.704;2023-05-28T06:11:32;101334.22;;;27.05;61.57
250;BME280;109;19.806;-70.704;2023-05-28T06:14:06;101331.56;;;27.05;62.09
250;BME280;109;19.806;-70.704;2023-05-28T06:16:33;101326.44;;;27.01;61.84
250;BME280;109;19.806;-70.704;2023-05-28T06:19:06;101331.81;;;27.01;61.74
250;BME280;109;19.806;-70.704;2023-05-28T06:21:35;101328.25;;;27.00;61.67
250;BME280;109;19.806;-70.704;2023-05-28T06:24:09;101335.53;;;26.81;60.67
250;BME280;109;19.806;-70.704;2023-05-28T06:26:37;101330.88;;;26.84;61.05
250;BME280;109;19.806;-70.704;2023-05-28T06:29:11;101332.84;;;26.81;60.69
250;BME280;109;19.806;-70.704;2023-05-28T06:31:37;101316.50;;;26.85;60.65
250;BME280;109;19.806;-70.704;2023-05-28T06:34:10;101316.50;;;26.85;61.14
250;BME280;109;19.806;-70.704;2023-05-28T06:36:37;101324.00;;;26.96;61.07
250;BME280;109;19.806;-70.704;2023-05-28T06:39:17;101316.81;;;26.97;61.14
250;BME280;109;19.806;-70.704;2023-05-28T06:41:51;101312.31;;;26.97;60.97
250;BME280;109;19.806;-70.704;2023-05-28T06:44:21;101305.97;;;26.98;60.79
250;BME280;109;19.806;-70.704;2023-05-28T06:46:57;101304.56;;;26.91;61.27
250;BME280;109;19.806;-70.704;2023-05-28T06:49:23;101304.97;;;26.83;60.75
250;BME280;109;19.806;-70.704;2023-05-28T06:52:04;101299.34;;;26.88;60.99
250;BME280;109;19.806;-70.704;2023-05-28T06:54:37;101299.50;;;26.85;60.95
250;BME280;109;19.806;-70.704;2023-05-28T06:57:06;101295.78;;;26.88;60.81
250;BME280;109;19.806;-70.704;2023-05-28T06:59:51;101292.16;;;26.89;60.23
250;BME280;109;19.806;-70.704;2023-05-28T07:02:45;101292.41;;;26.84;59.93
250;BME280;109;19.806;-70.704;2023-05-28T07:05:37;101282.41;;;26.70;59.74
250;BME280;109;19.806;-70.704;2023-05-28T07:08:10;101281.00;;;26.63;60.10
250;BME280;109;19.806;-70.704;2023-05-28T07:10:36;101281.88;;;26.64;60.56
250;BME280;109;19.806;-70.704;2023-05-28T07:13:10;101283.19;;;26.72;60.56
250;BME280;109;19.806;-70.704;2023-05-28T07:15:37;101283.97;;;26.74;60.55
250;BME280;109;19.806;-70.704;2023-05-28T07:18:09;101279.28;;;26.62;60.25
250;BME280;109;19.806;-70.704;2023-05-28T07:20:36;101270.59;;;26.57;60.41
250;BME280;109;19.806;-70.704;2023-05-28T07:23:15;101275.09;;;26.57;59.62
250;BME280;109;19.806;-70.704;2023-05-28T07:25:50;101276.97;;;26.55;60.07
250;BME280;109;19.806;-70.704;2023-05-28T07:28:17;101278.63;;;26.57;59.75
250;BME280;109;19.806;-70.704;2023-05-28T07:30:50;101279.00;;;26.51;59.77
250;BME280;109;19.806;-70.704;2023-05-28T07:33:17;101283.84;;;26.60;59.92
250;BME280;109;19.806;-70.704;2023-05-28T07:35:51;101280.88;;;26.49;59.99
250;BME280;109;19.806;-70.704;2023-05-28T07:38:39;101281.75;;;26.49;59.84
250;BME280;109;19.806;-70.704;2023-05-28T07:41:13;101283.28;;;26.54;59.59
250;BME280;109;19.806;-70.704;2023-05-28T07:43:45;101284.09;;;26.56;59.42
250;BME280;109;19.806;-70.704;2023-05-28T07:46:28;101275.81;;;26.60;59.17
250;BME280;109;19.806;-70.704;2023-05-28T07:49:19;101272.16;;;26.61;59.66
250;BME280;109;19.806;-70.704;2023-05-28T07:51:57;101271.53;;;26.56;59.03
250;BME280;109;19.806;-70.704;2023-05-28T07:54:31;101265.28;;;26.56;59.08
250;BME280;109;19.806;-70.704;2023-05-28T07:56:58;101268.06;;;26.54;59.32
250;BME280;109;19.806;-70.704;2023-05-28T07:59:35;101272.00;;;26.64;59.21
250;BME280;109;19.806;-70.704;2023-05-28T08:02:03;101278.13;;;26.66;59.38
250;BME280;109;19.806;-70.704;2023-05-28T08:04:36;101271.63;;;26.55;59.82
250;BME280;109;19.806;-70.704;2023-05-28T08:07:05;101279.94;;;26.50;59.47
250;BME280;109;19.806;-70.704;2023-05-28T08:09:39;101289.38;;;26.57;59.88
250;BME280;109;19.806;-70.704;2023-05-28T08:12:07;101291.03;;;26.60;59.54
250;BME280;109;19.806;-70.704;2023-05-28T08:14:40;101294.53;;;26.44;59.82
250;BME280;109;19.806;-70.704;2023-05-28T08:17:09;101305.00;;;26.32;60.30
250;BME280;109;19.806;-70.704;2023-05-28T08:19:51;101299.78;;;26.29;59.69
250;BME280;109;19.806;-70.704;2023-05-28T08:22:43;101299.97;;;26.43;59.62
250;BME280;109;19.806;-70.704;2023-05-28T08:25:16;101305.19;;;26.46;59.70
250;BME280;109;19.806;-70.704;2023-05-28T08:27:44;101302.03;;;26.38;59.98
250;BME280;109;19.806;-70.704;2023-05-28T08:30:18;101303.69;;;26.40;59.75
250;BME280;109;19.806;-70.704;2023-05-28T08:32:57;101305.09;;;26.30;59.93
250;BME280;109;19.806;-70.704;2023-05-28T08:35:30;101295.13;;;26.32;60.34
250;BME280;109;19.806;-70.704;2023-05-28T08:37:58;101291.50;;;26.33;60.18
250;BME280;109;19.806;-70.704;2023-05-28T08:40:40;101293.31;;;26.33;60.20
250;BME280;109;19.806;-70.704;2023-05-28T08:43:22;101294.13;;;26.35;59.94
250;BME280;109;19.806;-70.704;2023-05-28T08:45:51;101304.69;;;26.38;60.29
250;BME280;109;19.806;-70.704;2023-05-28T08:48:41;101316.53;;;26.34;59.35
250;BME280;109;19.806;-70.704;2023-05-28T08:51:15;101315.59;;;26.35;59.48
250;BME280;109;19.806;-70.704;2023-05-28T08:53:46;101317.41;;;26.34;59.62
250;BME280;109;19.806;-70.704;2023-05-28T08:56:25;101322.69;;;26.36;59.53
250;BME280;109;19.806;-70.704;2023-05-28T08:58:59;101331.84;;;26.32;59.62
250;BME280;109;19.806;-70.704;2023-05-28T09:01:28;101331.84;;;26.32;59.40
250;BME280;109;19.806;-70.704;2023-05-28T09:04:11;101332.56;;;26.35;59.67
250;BME280;109;19.806;-70.704;2023-05-28T09:06:46;101335.03;;;26.40;59.96
250;BME280;109;19.806;-70.704;2023-05-28T09:09:24;101336.97;;;26.36;59.96
250;BME280;109;19.806;-70.704;2023-05-28T09:12:02;101337.84;;;26.37;59.25
250;BME280;109;19.806;-70.704;2023-05-28T09:14:41;101341.41;;;26.37;59.93
250;BME280;109;19.806;-70.704;2023-05-28T09:17:14;101345.75;;;26.40;59.90
250;BME280;109;19.806;-70.704;2023-05-28T09:19:50;101346.56;;;26.42;60.08
250;BME280;109;19.806;-70.704;2023-05-28T09:22:28;101347.88;;;26.33;59.43
250;BME280;109;19.806;-70.704;2023-05-28T09:25:11;101350.47;;;26.35;59.84
250;BME280;109;19.806;-70.704;2023-05-28T09:27:54;101352.44;;;26.31;60.05
250;BME280;109;19.806;-70.704;2023-05-28T09:30:27;101354.91;;;26.36;60.23
250;BME280;109;19.806;-70.704;2023-05-28T09:33:05;101359.63;;;26.31;60.26
250;BME280;109;19.806;-70.704;2023-05-28T09:35:33;101362.63;;;26.25;59.88
250;BME280;109;19.806;-70.704;2023-05-28T09:38:09;101361.84;;;26.23;59.93
250;BME280;109;19.806;-70.704;2023-05-28T09:40:56;101357.97;;;26.28;59.89
250;BME280;109;19.806;-70.704;2023-05-28T09:43:29;101349.28;;;26.23;60.21
250;BME280;109;19.806;-70.704;2023-05-28T09:46:08;101350.09;;;26.25;59.93
250;BME280;109;19.806;-70.704;2023-05-28T09:48:49;101357.19;;;26.26;60.27
250;BME280;109;19.806;-70.704;2023-05-28T09:51:26;101359.88;;;26.26;60.48
250;BME280;109;19.806;-70.704;2023-05-28T09:54:04;101348.34;;;26.24;60.24
250;BME280;109;19.806;-70.704;2023-05-28T09:56:41;101359.94;;;26.25;60.51
250;BME280;109;19.806;-70.704;2023-05-28T09:59:17;101362.38;;;26.29;60.21
250;BME280;109;19.806;-70.704;2023-05-28T10:01:59;101359.22;;;26.21;60.23
250;BME280;109;19.806;-70.704;2023-05-28T10:04:38;101363.56;;;26.24;60.62
250;BME280;109;19.806;-70.704;2023-05-28T10:07:12;101362.63;;;26.25;60.34
250;BME280;109;19.806;-70.704;2023-05-28T10:09:39;101359.78;;;26.28;60.51
250;BME280;109;19.806;-70.704;2023-05-28T10:12:16;101360.91;;;26.24;59.78
250;BME280;109;19.806;-70.704;2023-05-28T10:14:51;101364.53;;;26.23;59.84
250;BME280;109;19.806;-70.704;2023-05-28T10:17:17;101363.09;;;26.33;59.75
250;BME280;109;19.806;-70.704;2023-05-28T10:19:50;101367.94;;;26.26;59.16
250;BME280;109;19.806;-70.704;2023-05-28T10:22:17;101372.56;;;26.23;59.71
250;BME280;109;19.806;-70.704;2023-05-28T10:24:50;101375.38;;;26.38;59.64
250;BME280;109;19.806;-70.704;2023-05-28T10:27:32;101373.69;;;26.36;59.75
250;BME280;109;19.806;-70.704;2023-05-28T10:30:06;101369.13;;;26.38;59.90
250;BME280;109;19.806;-70.704;2023-05-28T10:32:42;101372.59;;;26.40;59.93
250;BME280;109;19.806;-70.704;2023-05-28T10:35:15;101372.00;;;26.52;60.25
250;BME280;109;19.806;-70.704;2023-05-28T10:37:42;101382.72;;;26.69;59.91
250;BME280;109;19.806;-70.704;2023-05-28T10:40:22;101379.94;;;26.71;59.28
250;BME280;109;19.806;-70.704;2023-05-28T10:43:02;101378.34;;;26.84;59.11
250;BME280;109;19.806;-70.704;2023-05-28T11:05:01;101383.88;;;26.98;57.81
250;BME280;109;19.806;-70.704;2023-05-28T11:07:34;101389.72;;;27.06;58.55
250;BME280;109;19.806;-70.704;2023-05-28T11:10:06;101384.22;;;27.25;57.78
250;BME280;109;19.806;-70.704;2023-05-28T11:12:36;101382.91;;;27.49;58.16
250;BME280;109;19.806;-70.704;2023-05-28T11:15:07;101384.72;;;27.65;57.79
250;BME280;109;19.806;-70.704;2023-05-28T11:17:38;101382.22;;;27.77;58.05
250;BME280;109;19.806;-70.704;2023-05-28T11:20:17;101392.72;;;27.98;57.52
250;BME280;109;19.806;-70.704;2023-05-28T11:22:43;101383.34;;;28.20;57.04
250;BME280;109;19.806;-70.704;2023-05-28T11:25:11;101385.22;;;28.34;56.57
250;BME280;109;19.806;-70.704;2023-05-28T11:27:39;101391.63;;;28.61;56.24
250;BME280;109;19.806;-70.704;2023-05-28T11:30:11;101383.38;;;28.65;55.57
250;BME280;109;19.806;-70.704;2023-05-28T11:32:39;101382.31;;;28.53;56.11
250;BME280;109;19.806;-70.704;2023-05-28T11:35:06;101379.25;;;28.59;56.41
250;BME280;109;19.806;-70.704;2023-05-28T11:37:34;101387.91;;;28.64;56.01
250;BME280;109;19.806;-70.704;2023-05-28T11:40:03;101385.22;;;28.64;55.66
250;BME280;109;19.806;-70.704;2023-05-28T11:42:43;101390.91;;;28.44;56.09
250;BME280;109;19.806;-70.704;2023-05-28T11:45:11;101383.78;;;28.43;56.19
250;BME280;109;19.806;-70.704;2023-05-28T11:47:38;101388.25;;;28.28;55.94
250;BME280;109;19.806;-70.704;2023-05-28T11:50:11;101376.66;;;28.42;55.99
250;BME280;109;19.806;-70.704;2023-05-28T11:52:38;101374.31;;;28.51;55.58
250;BME280;109;19.806;-70.704;2023-05-28T11:55:05;101367.88;;;28.54;55.66
250;BME280;109;19.806;-70.704;2023-05-28T11:57:33;101372.34;;;28.69;55.75
250;BME280;109;19.806;-70.704;2023-05-28T12:00:04;101367.53;;;28.88;54.84
250;BME280;109;19.806;-70.704;2023-05-28T12:02:47;101373.56;;;29.08;53.76
250;BME280;109;19.806;-70.704;2023-05-28T12:05:16;101377.78;;;29.26;53.23
250;BME280;109;19.806;-70.704;2023-05-28T12:07:50;101378.00;;;29.23;53.14
250;BME280;109;19.806;-70.704;2023-05-28T12:10:20;101372.09;;;29.16;54.02
250;BME280;109;19.806;-70.704;2023-05-28T12:12:52;101379.03;;;29.20;54.18
250;BME280;109;19.806;-70.704;2023-05-28T12:15:26;101375.75;;;29.44;54.81
250;BME280;109;19.806;-70.704;2023-05-28T12:17:59;101376.91;;;29.54;54.53
250;BME280;109;19.806;-70.704;2023-05-28T12:20:30;101377.47;;;29.45;54.35
250;BME280;109;19.806;-70.704;2023-05-28T12:28:10;101378.63;;;29.26;54.53
250;BME280;109;19.806;-70.704;2023-05-28T12:30:38;101394.44;;;29.18;54.41
250;BME280;109;19.806;-70.704;2023-05-28T12:33:05;101394.94;;;28.97;55.04
250;BME280;109;19.806;-70.704;2023-05-28T12:35:32;101395.94;;;28.94;54.89
250;BME280;109;19.806;-70.704;2023-05-28T12:37:58;101396.38;;;29.16;55.44
250;BME280;109;19.806;-70.704;2023-05-28T12:40:24;101395.44;;;28.87;55.72
250;BME280;109;19.806;-70.704;2023-05-28T12:42:51;101392.22;;;28.97;56.18
250;BME280;109;19.806;-70.704;2023-05-28T12:45:17;101402.34;;;29.21;55.87
250;BME280;109;19.806;-70.704;2023-05-28T12:47:44;101394.94;;;29.25;55.67
250;BME280;109;19.806;-70.704;2023-05-28T12:50:11;101395.91;;;29.38;56.31
250;BME280;109;19.806;-70.704;2023-05-28T12:52:37;101395.44;;;29.46;55.54
250;BME280;109;19.806;-70.704;2023-05-28T12:55:04;101396.00;;;29.51;55.35
250;BME280;109;19.806;-70.704;2023-05-28T12:57:30;101389.13;;;29.45;54.36
250;BME280;109;19.806;-70.704;2023-05-28T12:59:57;101401.47;;;29.35;55.08
250;BME280;109;19.806;-70.704;2023-05-28T13:02:23;101395.34;;;29.47;54.36
250;BME280;109;19.806;-70.704;2023-05-28T13:04:50;101395.56;;;29.71;55.41
250;BME280;109;19.806;-70.704;2023-05-28T13:07:16;101387.25;;;29.88;54.95
250;BME280;109;19.806;-70.704;2023-05-28T13:09:43;101396.03;;;30.19;54.76
250;BME280;109;19.806;-70.704;2023-05-28T13:12:09;101395.75;;;30.36;54.33
250;BME280;109;19.806;-70.704;2023-05-28T13:14:36;101393.53;;;30.43;53.87
250;BME280;109;19.806;-70.704;2023-05-28T13:17:02;101398.91;;;30.43;53.58
250;BME280;109;19.806;-70.704;2023-05-28T13:19:29;101401.56;;;30.57;53.40
250;BME280;109;19.806;-70.704;2023-05-28T13:21:56;101397.34;;;30.26;52.29
250;BME280;109;19.806;-70.704;2023-05-28T13:24:22;101392.00;;;30.39;52.78
250;BME280;109;19.806;-70.704;2023-05-28T13:26:49;101393.81;;;30.65;52.51
250;BME280;109;19.806;-70.704;2023-05-28T13:29:15;101385.81;;;30.76;51.33
250;BME280;109;19.806;-70.704;2023-05-28T13:31:42;101380.59;;;30.73;51.20
250;BME280;109;19.806;-70.704;2023-05-28T13:34:08;101381.41;;;31.00;52.64
250;BME280;109;19.806;-70.704;2023-05-28T13:36:35;101379.97;;;31.08;51.87
250;BME280;109;19.806;-70.704;2023-05-28T13:39:02;101379.88;;;31.22;51.41
250;BME280;109;19.806;-70.704;2023-05-28T13:41:30;101388.22;;;31.19;51.41
250;BME280;109;19.806;-70.704;2023-05-28T13:43:57;101383.88;;;31.29;50.58
250;BME280;109;19.806;-70.704;2023-05-28T13:46:24;101374.34;;;31.23;51.17
250;BME280;109;19.806;-70.704;2023-05-28T13:48:51;101378.25;;;31.32;51.44
250;BME280;109;19.806;-70.704;2023-05-28T13:51:17;101376.84;;;31.39;51.43
250;BME280;109;19.806;-70.704;2023-05-28T13:53:44;101382.16;;;31.40;51.15
250;BME280;109;19.806;-70.704;2023-05-28T13:56:14;101382.03;;;31.42;51.01
250;BME280;109;19.806;-70.704;2023-05-28T13:58:41;101375.53;;;31.32;52.49
250;BME280;109;19.806;-70.704;2023-05-28T14:01:07;101380.22;;;31.04;51.69
250;BME280;109;19.806;-70.704;2023-05-28T14:03:34;101381.41;;;31.00;51.80